Time;durP1;ratioP1;P1;durP2;ratioP2;P2;SDS_P1;SDS_P2;PMS_P1;PMS_P2;Temp;Humidity;BMP_temperature;BMP_pressure;BME280_temperature;BME280_humidity;BME280_pressure;Samples;Min_cycle;Max_cycle;Signal;HPM_P1;HPM_P2
2021/08/07 00:01:27;;;;;;;8.40;1.70;;;15.50;99.90;;;15.37;97.54;100061.53;4119463;28;20059;-75
2021/08/07 00:03:28;;;;;;;6.88;1.80;;;15.50;99.90;;;15.52;96.62;100053.38;4119368;28;20031;-75
2021/08/07 00:05:29;;;;;;;7.95;1.98;;;15.60;99.90;;;15.50;96.49;100050.94;4135419;28;20437;-75
2021/08/07 00:07:30;;;;;;;6.63;1.92;;;15.60;99.90;;;15.52;96.53;100050.72;4119404;28;20035;-75
2021/08/07 00:09:31;;;;;;;9.77;1.83;;;15.70;99.90;;;15.50;96.96;100042.97;4119588;28;20093;-75
2021/08/07 00:11:32;;;;;;;6.28;2.25;;;15.60;99.90;;;15.37;97.91;100035.78;4135519;28;20027;-75
2021/08/07 00:13:33;;;;;;;4.32;1.45;;;15.60;99.90;;;15.49;97.27;100051.97;4120425;28;20054;-75
2021/08/07 00:15:34;;;;;;;7.10;2.38;;;15.60;99.90;;;15.42;97.89;100038.63;4119186;28;20030;-75
2021/08/07 00:17:35;;;;;;;5.50;1.80;;;15.70;99.90;;;15.53;97.22;100034.56;4103217;29;20039;-75
2021/08/07 00:19:36;;;;;;;9.50;2.45;;;15.70;99.90;;;15.54;96.96;100030.06;4119273;28;20375;-75
2021/08/07 00:21:37;;;;;;;5.97;1.40;;;15.70;99.90;;;15.46;97.68;100023.94;4119025;28;20499;-75
2021/08/07 00:23:38;;;;;;;5.65;1.90;;;15.70;99.90;;;15.55;98.00;100021.91;4119108;28;20041;-75
2021/08/07 00:25:39;;;;;;;7.95;1.83;;;15.80;99.90;;;15.68;97.80;100021.09;4119157;28;20030;-75
2021/08/07 00:27:40;;;;;;;7.63;1.80;;;15.80;99.90;;;15.67;98.48;100019.44;4119329;28;20033;-75
2021/08/07 00:29:41;;;;;;;9.70;2.38;;;15.80;99.90;;;15.79;97.71;100013.28;4120001;28;20031;-75
2021/08/07 00:31:42;;;;;;;4.88;1.52;;;15.90;99.90;;;15.73;98.12;100008.81;4119196;28;20033;-75
2021/08/07 00:33:43;;;;;;;10.70;2.47;;;15.90;99.90;;;15.77;97.72;100007.34;4120426;28;20511;-75
2021/08/07 00:35:46;;;;;;;4.63;1.55;;;16.00;99.90;;;15.76;98.50;99997.75;4118186;28;20158;-74
2021/08/07 00:37:47;;;;;;;12.55;2.03;;;16.00;99.90;;;15.75;99.10;99990.78;4134855;28;20030;-74
2021/08/07 00:39:48;;;;;;;8.02;1.90;;;16.10;99.90;;;15.78;99.61;99979.72;4118921;28;20026;-75
2021/08/07 00:41:49;;;;;;;8.23;2.10;;;16.10;99.90;;;15.85;99.63;99985.03;4102741;28;20047;-74
2021/08/07 00:43:49;;;;;;;9.93;1.92;;;16.10;99.90;;;15.86;100.00;99973.38;4118605;28;20023;-74
2021/08/07 00:45:50;;;;;;;4.68;1.73;;;16.10;99.90;;;15.83;100.00;99968.50;4134998;28;20106;-74
2021/08/07 00:47:51;;;;;;;9.20;2.33;;;16.20;99.90;;;15.82;100.00;99967.66;4119013;28;20038;-75
2021/08/07 00:49:52;;;;;;;7.93;1.73;;;16.10;99.90;;;15.83;100.00;99963.16;4120310;28;20027;-75
2021/08/07 00:51:53;;;;;;;4.25;1.73;;;16.20;99.90;;;15.91;100.00;99974.38;4120074;28;20044;-74
2021/08/07 00:53:56;;;;;;;7.70;2.08;;;16.20;99.90;;;15.88;100.00;99976.66;4118871;28;20035;-75
2021/08/07 00:55:58;;;;;;;8.35;1.80;;;16.20;99.90;;;15.95;100.00;99982.75;4118844;28;20030;-75
2021/08/07 00:57:59;;;;;;;4.80;1.90;;;16.20;99.90;;;15.89;100.00;99973.75;4118687;28;20037;-75
2021/08/07 01:00:00;;;;;;;8.02;1.70;;;16.20;99.90;;;15.83;100.00;99963.16;4118422;28;20061;-75
2021/08/07 01:02:09;;;;;;;6.50;1.48;;;16.20;99.90;;;15.79;100.00;99956.63;4119785;28;20035;-75
2021/08/07 01:04:20;;;;;;;5.22;1.60;;;16.10;99.90;;;15.73;100.00;99952.13;4118684;28;20113;-75
2021/08/07 01:06:49;;;;;;;7.15;1.63;;;16.10;99.90;;;15.78;100.00;99941.69;4118800;28;20023;-75
2021/08/07 01:09:28;;;;;;;6.32;2.78;;;16.10;99.90;;;15.72;100.00;99927.38;4119641;28;20027;-75
2021/08/07 01:11:36;;;;;;;6.05;1.85;;;16.10;99.90;;;15.84;100.00;99946.16;4141722;28;20038;-75
2021/08/07 01:13:48;;;;;;;7.20;2.60;;;16.10;99.90;;;15.74;100.00;99933.28;4119950;28;20031;-75
2021/08/07 01:16:07;;;;;;;9.70;2.85;;;16.10;99.90;;;15.67;100.00;99918.41;4118685;28;20123;-75
2021/08/07 01:18:13;;;;;;;9.13;2.67;;;16.10;99.90;;;15.72;100.00;99931.88;4133584;28;20031;-75
2021/08/07 01:20:32;;;;;;;11.23;2.83;;;16.00;99.90;;;15.71;100.00;99917.75;4102744;28;20072;-75
2021/08/07 01:23:02;;;;;;;5.40;1.92;;;16.00;99.90;;;15.66;100.00;99911.44;4133748;28;20461;-76
2021/08/07 01:25:07;;;;;;;8.13;2.38;;;16.00;99.90;;;15.71;100.00;99904.47;4134833;28;20030;-76
2021/08/07 01:27:24;;;;;;;4.43;2.08;;;16.10;99.90;;;15.65;100.00;99909.81;4102557;28;20023;-76
2021/08/07 01:29:27;;;;;;;7.63;2.53;;;16.10;99.90;;;15.60;100.00;99899.81;4118134;28;20439;-76
2021/08/07 01:31:29;;;;;;;10.38;2.08;;;16.00;99.90;;;15.96;100.00;99907.25;4118326;28;20070;-76
2021/08/07 01:33:30;;;;;;;7.55;2.40;;;16.10;99.90;;;15.92;100.00;99903.38;4118536;28;20098;-76
2021/08/07 01:35:32;;;;;;;8.38;1.50;;;16.20;99.90;;;15.86;100.00;99901.59;4118529;28;20062;-76
2021/08/07 01:37:33;;;;;;;7.57;1.70;;;16.10;99.90;;;15.87;100.00;99897.88;4118147;28;20038;-76
2021/08/07 01:39:35;;;;;;;9.07;2.38;;;16.20;99.90;;;15.80;100.00;99897.88;4119332;28;20089;-76
2021/08/07 01:41:37;;;;;;;9.80;2.88;;;16.20;99.90;;;15.84;100.00;99885.00;4134146;28;20072;-76
2021/08/07 01:43:37;;;;;;;8.88;2.50;;;16.10;99.90;;;15.76;100.00;99874.59;4101976;29;20035;-76
2021/08/07 01:45:39;;;;;;;8.95;2.05;;;16.20;99.90;;;15.86;100.00;99882.97;4119272;28;20070;-76
2021/08/07 01:47:49;;;;;;;8.88;2.28;;;16.10;99.90;;;15.86;100.00;99886.41;4119689;28;20465;-76
2021/08/07 01:50:15;;;;;;;8.77;2.22;;;16.20;99.90;;;15.76;100.00;99878.09;4122651;28;20038;-76
2021/08/07 01:52:23;;;;;;;7.38;2.50;;;16.20;99.90;;;15.81;100.00;99880.09;4121423;28;20402;-76
2021/08/07 01:54:37;;;;;;;5.63;1.80;;;16.20;99.90;;;15.91;100.00;99888.47;4122526;28;20031;-76
2021/08/07 01:56:45;;;;;;;11.13;2.93;;;16.20;99.90;;;15.92;100.00;99872.28;4137317;28;20516;-76
2021/08/07 01:58:51;;;;;;;4.97;1.75;;;16.20;99.90;;;16.01;100.00;99872.84;4120946;28;20356;-76
2021/08/07 02:00:53;;;;;;;8.43;1.95;;;16.20;99.90;;;16.04;100.00;99864.44;4121340;28;20034;-76
2021/08/07 02:02:55;;;;;;;5.25;1.83;;;16.30;99.90;;;15.97;100.00;99858.34;4121196;28;20085;-75
2021/08/07 02:04:58;;;;;;;9.40;2.45;;;16.30;99.90;;;16.00;100.00;99856.09;4121179;28;20114;-75
2021/08/07 02:07:00;;;;;;;8.90;2.15;;;16.30;99.90;;;16.01;100.00;99852.38;4120972;28;20035;-76
2021/08/07 02:09:02;;;;;;;7.35;2.15;;;16.30;99.90;;;16.01;100.00;99856.88;4121208;28;20034;-76
2021/08/07 02:11:04;;;;;;;9.50;2.35;;;16.30;99.90;;;16.04;100.00;99856.47;4121236;28;20027;-76
2021/08/07 02:13:07;;;;;;;6.57;1.60;;;16.30;99.90;;;15.89;100.00;99855.91;4121126;28;20027;-76
2021/08/07 02:15:10;;;;;;;5.90;1.48;;;16.30;99.90;;;15.77;100.00;99855.75;4121856;28;20035;-76
2021/08/07 02:17:12;;;;;;;6.37;1.60;;;16.30;99.90;;;15.82;100.00;99852.50;4121150;28;20034;-75
2021/08/07 02:19:14;;;;;;;3.33;1.08;;;16.20;99.90;;;15.83;100.00;99835.50;4121053;28;20034;-76
2021/08/07 02:21:16;;;;;;;3.92;1.10;;;16.20;99.90;;;15.82;100.00;99825.91;4121037;28;20023;-75
2021/08/07 02:23:18;;;;;;;4.55;2.00;;;16.20;99.90;;;15.76;100.00;99819.59;4120625;28;20035;-75
2021/08/07 02:25:21;;;;;;;7.03;1.33;;;16.20;99.90;;;15.65;100.00;99814.91;4120834;28;20113;-76
2021/08/07 02:27:22;;;;;;;4.07;1.30;;;16.20;99.90;;;15.76;100.00;99826.75;4120802;28;20026;-76
2021/08/07 02:29:24;;;;;;;4.82;1.10;;;16.10;99.90;;;15.81;100.00;99840.22;4120596;28;20022;-76
2021/08/07 02:31:26;;;;;;;5.75;1.27;;;16.10;99.90;;;15.90;100.00;99838.94;4120719;28;20031;-76
2021/08/07 02:33:29;;;;;;;4.60;1.20;;;16.20;99.90;;;15.64;100.00;99817.78;4120921;28;20031;-76
2021/08/07 02:35:30;;;;;;;7.60;1.90;;;16.10;99.90;;;15.68;100.00;99816.34;4120884;28;20058;-76
2021/08/07 02:37:32;;;;;;;6.43;1.60;;;16.10;99.90;;;15.86;100.00;99821.78;4122023;28;20397;-76
2021/08/07 02:39:33;;;;;;;5.65;2.10;;;16.10;99.90;;;15.86;100.00;99813.81;4120619;28;20516;-76
2021/08/07 02:41:35;;;;;;;7.25;1.77;;;16.20;99.90;;;15.91;100.00;99820.13;4120339;28;20039;-76
2021/08/07 02:43:37;;;;;;;8.45;2.53;;;16.30;99.90;;;15.97;100.00;99824.59;4096620;29;20031;-76
2021/08/07 02:45:38;;;;;;;9.25;1.60;;;16.30;99.90;;;16.05;100.00;99815.53;4116024;28;20105;-76
2021/08/07 02:47:40;;;;;;;8.75;2.28;;;16.40;99.90;;;16.08;100.00;99824.94;4136596;28;20522;-76
2021/08/07 02:49:41;;;;;;;12.93;2.28;;;16.40;99.90;;;16.01;100.00;99827.63;4136832;28;20027;-76
2021/08/07 02:51:42;;;;;;;7.35;2.15;;;16.40;99.90;;;16.01;100.00;99819.63;4120725;28;20037;-75
2021/08/07 02:53:44;;;;;;;11.43;2.47;;;16.40;99.90;;;15.99;100.00;99816.38;4152771;28;20088;-75
2021/08/07 02:55:45;;;;;;;9.52;1.52;;;16.40;99.90;;;16.01;100.00;99812.47;4120230;28;20066;-75
2021/08/07 02:57:50;;;;;;;7.20;2.08;;;16.40;99.90;;;16.08;100.00;99811.63;4120640;28;20038;-75
2021/08/07 02:59:51;;;;;;;7.03;1.75;;;16.40;99.90;;;16.07;100.00;99813.47;4119181;28;20062;-76
2021/08/07 03:01:52;;;;;;;7.05;2.25;;;16.50;99.90;;;16.10;100.00;99802.41;4119854;28;20033;-75
2021/08/07 03:03:53;;;;;;;11.63;2.72;;;16.50;99.90;;;16.16;100.00;99779.47;4111536;28;20039;-75
2021/08/07 03:05:54;;;;;;;10.30;2.42;;;16.50;99.90;;;16.06;100.00;99777.28;4144565;28;20522;-75
2021/08/07 03:07:55;;;;;;;11.23;2.58;;;16.40;99.90;;;16.24;100.00;99780.00;4102327;28;20039;-75
2021/08/07 03:09:55;;;;;;;9.88;2.15;;;16.50;99.90;;;16.13;100.00;99772.69;4104096;28;20058;-75
2021/08/07 03:11:56;;;;;;;10.60;2.65;;;16.50;99.90;;;16.21;100.00;99777.78;4104022;28;20023;-76
2021/08/07 03:13:57;;;;;;;10.00;2.30;;;16.50;99.90;;;16.15;100.00;99768.00;4119780;28;20503;-75
2021/08/07 03:15:59;;;;;;;11.23;2.50;;;16.50;99.90;;;16.13;100.00;99756.72;4105436;28;20506;-75
2021/08/07 03:18:00;;;;;;;13.45;2.20;;;16.40;99.90;;;16.12;100.00;99763.09;4103874;28;20033;-75
2021/08/07 03:20:01;;;;;;;15.23;2.85;;;16.40;99.90;;;16.10;100.00;99759.81;4103220;28;20035;-75
2021/08/07 03:22:02;;;;;;;9.02;2.83;;;16.40;99.90;;;16.19;100.00;99755.88;4119986;28;20031;-75
2021/08/07 03:24:03;;;;;;;8.05;2.58;;;16.40;99.90;;;16.14;100.00;99761.03;4119813;28;20064;-75
2021/08/07 03:26:04;;;;;;;14.60;2.20;;;16.40;99.90;;;16.29;100.00;99766.84;4103819;28;20032;-75
2021/08/07 03:28:07;;;;;;;8.95;1.45;;;16.50;99.90;;;16.26;100.00;99761.97;4119808;28;20561;-75
2021/08/07 03:30:09;;;;;;;10.27;2.22;;;16.50;99.90;;;16.21;100.00;99758.34;4119673;28;20459;-75
2021/08/07 03:32:10;;;;;;;7.50;1.92;;;16.50;99.90;;;16.11;100.00;99761.47;4119626;28;20514;-75
2021/08/07 03:34:11;;;;;;;11.05;2.03;;;16.50;99.90;;;16.09;100.00;99757.41;4119625;28;20158;-76
2021/08/07 03:36:12;;;;;;;8.45;1.70;;;16.50;99.90;;;16.20;100.00;99757.50;4119827;28;20027;-75
2021/08/07 03:38:13;;;;;;;9.98;2.53;;;16.60;99.90;;;16.29;100.00;99771.38;4121023;28;20049;-75
2021/08/07 03:40:14;;;;;;;9.15;2.80;;;16.60;99.90;;;16.27;100.00;99774.25;4119601;28;20035;-75
2021/08/07 03:42:15;;;;;;;12.02;2.35;;;16.60;99.90;;;16.21;100.00;99764.47;4119574;28;20023;-75
2021/08/07 03:44:16;;;;;;;8.15;1.95;;;16.60;99.90;;;16.32;100.00;99781.56;4119068;28;20059;-75
2021/08/07 03:46:17;;;;;;;5.53;1.60;;;16.60;99.90;;;16.25;100.00;99755.00;4119438;28;20561;-75
2021/08/07 03:48:18;;;;;;;3.45;1.20;;;16.60;99.90;;;16.19;100.00;99753.22;4120868;28;20023;-76
2021/08/07 03:50:21;;;;;;;2.38;0.98;;;16.60;99.90;;;15.96;100.00;99742.34;4119640;28;20019;-76
2021/08/07 03:52:22;;;;;;;3.60;0.97;;;16.50;99.90;;;15.73;100.00;99731.44;4120638;28;20070;-76
2021/08/07 03:54:23;;;;;;;1.67;0.70;;;16.40;99.90;;;15.67;100.00;99716.34;4119671;28;20411;-75
2021/08/07 03:56:24;;;;;;;1.70;1.05;;;16.20;99.90;;;15.61;100.00;99744.59;4135817;28;20502;-76
2021/08/07 03:58:25;;;;;;;1.75;0.80;;;16.20;99.90;;;15.65;100.00;99745.00;4119550;28;20036;-75
2021/08/07 04:00:30;;;;;;;2.17;0.90;;;16.10;99.90;;;15.73;100.00;99740.25;4134831;28;20060;-76
2021/08/07 04:02:31;;;;;;;4.70;1.10;;;16.10;99.90;;;15.73;100.00;99731.44;4119700;28;20031;-75
2021/08/07 04:04:32;;;;;;;3.85;0.90;;;16.10;99.90;;;15.74;100.00;99741.84;4119290;28;20034;-76
2021/08/07 04:06:33;;;;;;;7.60;1.13;;;16.10;99.90;;;15.85;100.00;99735.06;4135401;28;20105;-75
2021/08/07 04:08:34;;;;;;;6.95;1.67;;;16.10;99.90;;;15.94;100.00;99739.09;4118935;28;20023;-76
2021/08/07 04:10:36;;;;;;;4.75;1.67;;;16.20;99.90;;;15.85;100.00;99732.38;4135149;28;20033;-76
2021/08/07 04:12:37;;;;;;;2.90;0.95;;;16.20;99.90;;;15.77;100.00;99722.03;4119198;28;20022;-76
2021/08/07 04:14:39;;;;;;;4.13;1.10;;;16.20;99.90;;;15.75;100.00;99718.75;4118853;28;20026;-76
2021/08/07 04:16:40;;;;;;;2.28;1.13;;;16.20;99.90;;;15.71;100.00;99728.97;4120008;28;20585;-76
2021/08/07 04:18:41;;;;;;;7.20;1.23;;;16.10;99.90;;;15.89;100.00;99729.06;4103050;28;20023;-76
2021/08/07 04:20:43;;;;;;;3.70;1.10;;;16.10;99.90;;;15.79;100.00;99719.94;4120358;28;20394;-76
2021/08/07 04:22:44;;;;;;;3.97;1.27;;;16.20;99.90;;;15.72;100.00;99717.31;4120220;28;20030;-76
2021/08/07 04:24:45;;;;;;;3.08;0.90;;;16.20;99.90;;;15.75;100.00;99724.06;4120060;28;20154;-76
2021/08/07 04:26:46;;;;;;;5.18;1.05;;;16.10;99.90;;;15.86;100.00;99732.16;4134989;28;20026;-76
2021/08/07 04:28:47;;;;;;;4.05;1.55;;;16.20;99.90;;;15.94;100.00;99744.41;4120012;28;20113;-76
2021/08/07 04:30:48;;;;;;;6.07;1.52;;;16.20;99.90;;;16.09;100.00;99741.44;4102592;28;20035;-76
2021/08/07 04:32:50;;;;;;;5.55;1.42;;;16.20;99.90;;;16.05;100.00;99730.41;4111372;28;20031;-76
2021/08/07 04:34:51;;;;;;;8.30;2.00;;;16.30;99.90;;;16.01;100.00;99707.91;4118417;28;20030;-76
2021/08/07 04:36:52;;;;;;;6.13;1.40;;;16.30;99.90;;;15.99;100.00;99702.81;4120138;28;20066;-76
2021/08/07 04:38:53;;;;;;;5.97;1.92;;;16.30;99.90;;;15.97;100.00;99702.22;4118896;28;20025;-76
2021/08/07 04:40:54;;;;;;;7.88;1.42;;;16.30;99.90;;;16.10;100.00;99735.88;4134756;28;20542;-76
2021/08/07 04:42:55;;;;;;;6.35;2.17;;;16.30;99.90;;;16.01;100.00;99735.34;4118787;28;20086;-76
2021/08/07 04:44:56;;;;;;;5.90;1.30;;;16.30;99.90;;;16.09;100.00;99752.91;4102599;28;20034;-76
2021/08/07 04:46:57;;;;;;;9.63;2.33;;;16.30;99.90;;;16.04;100.00;99732.25;4120104;28;20027;-76
2021/08/07 04:48:58;;;;;;;14.50;2.58;;;16.30;99.90;;;16.00;100.00;99727.59;4118814;28;20023;-76
2021/08/07 04:50:59;;;;;;;7.50;1.77;;;16.30;99.90;;;15.89;100.00;99722.94;4119882;28;20026;-75
2021/08/07 04:53:01;;;;;;;7.38;1.65;;;16.20;99.90;;;15.87;100.00;99717.84;4120011;28;20058;-75
2021/08/07 04:55:02;;;;;;;5.93;1.65;;;16.20;99.90;;;15.92;100.00;99727.81;4118701;28;20034;-76
2021/08/07 04:57:03;;;;;;;7.63;1.80;;;16.20;99.90;;;15.86;100.00;99726.06;4119877;28;20046;-76
2021/08/07 04:59:05;;;;;;;7.60;1.75;;;16.10;99.90;;;15.81;100.00;99713.38;4118223;28;20031;-75
2021/08/07 05:01:05;;;;;;;8.35;2.10;;;16.10;99.90;;;15.78;100.00;99713.81;4119685;28;20698;-75
2021/08/07 05:03:06;;;;;;;4.20;1.15;;;16.00;99.90;;;15.86;100.00;99718.06;4118636;28;20048;-76
2021/08/07 05:05:08;;;;;;;4.97;1.48;;;16.00;99.90;;;15.66;100.00;99720.03;4134690;28;20457;-76
2021/08/07 05:07:09;;;;;;;5.70;2.30;;;15.90;99.90;;;15.61;100.00;99719.84;4118486;28;20054;-76
2021/08/07 05:09:11;;;;;;;6.75;2.63;;;15.90;99.90;;;15.65;100.00;99723.72;4119893;28;20394;-75
2021/08/07 05:11:12;;;;;;;6.35;2.22;;;15.80;99.90;;;15.48;100.00;99723.38;4118696;28;20491;-75
2021/08/07 05:13:13;;;;;;;5.25;1.60;;;15.80;99.90;;;15.39;100.00;99733.41;4119768;28;20031;-76
2021/08/07 05:15:13;;;;;;;7.45;1.88;;;15.70;99.90;;;15.34;100.00;99727.13;4119368;28;20507;-75
2021/08/07 05:17:15;;;;;;;7.90;1.60;;;15.70;99.90;;;15.36;100.00;99738.34;4118612;28;20038;-76
2021/08/07 05:19:15;;;;;;;10.43;1.88;;;15.70;99.90;;;15.42;100.00;99740.97;4118621;28;20466;-75
2021/08/07 05:21:16;;;;;;;6.13;1.63;;;15.60;99.90;;;15.30;100.00;99726.72;4134584;28;20070;-76
2021/08/07 05:23:17;;;;;;;6.40;1.92;;;15.60;99.90;;;15.43;100.00;99739.13;4120973;28;20403;-76
2021/08/07 05:25:18;;;;;;;11.27;1.75;;;15.50;99.90;;;15.40;100.00;99739.56;4122910;28;20101;-75
2021/08/07 05:27:19;;;;;;;4.90;1.58;;;15.60;99.90;;;15.36;100.00;99725.06;4137907;28;20536;-76
2021/08/07 05:29:20;;;;;;;6.45;1.58;;;15.60;99.90;;;15.34;100.00;99732.44;4121434;28;20486;-76
2021/08/07 05:31:21;;;;;;;5.93;1.60;;;15.50;99.90;;;15.35;100.00;99734.06;4122848;28;20027;-76
2021/08/07 05:33:21;;;;;;;6.10;1.60;;;15.50;99.90;;;15.28;100.00;99733.28;4123003;28;20186;-76
2021/08/07 05:35:23;;;;;;;12.95;2.33;;;15.50;99.90;;;15.25;100.00;99717.75;4121711;28;20034;-76
2021/08/07 05:37:24;;;;;;;13.43;2.00;;;15.60;99.90;;;15.31;100.00;99728.34;4122786;28;20033;-76
2021/08/07 05:39:25;;;;;;;8.00;2.20;;;15.50;99.90;;;15.27;100.00;99719.16;4122570;28;20037;-75
2021/08/07 05:41:26;;;;;;;8.52;2.30;;;15.60;99.90;;;15.28;100.00;99739.41;4122588;28;20106;-76
2021/08/07 05:43:28;;;;;;;7.32;2.05;;;15.60;99.90;;;15.45;100.00;99734.41;4122466;28;20031;-76
2021/08/07 05:45:29;;;;;;;4.63;1.75;;;15.60;99.90;;;15.34;100.00;99732.44;4153812;28;20422;-76
2021/08/07 05:47:30;;;;;;;15.93;1.98;;;15.60;99.90;;;15.34;100.00;99733.25;4121468;28;20029;-75
2021/08/07 05:49:31;;;;;;;9.55;2.00;;;15.70;99.90;;;15.41;100.00;99739.34;4121609;28;20027;-76
2021/08/07 05:51:34;;;;;;;8.32;1.60;;;15.80;99.90;;;15.53;100.00;99741.38;4105572;29;20083;-75
2021/08/07 05:53:35;;;;;;;9.98;1.80;;;15.90;99.90;;;15.80;100.00;99740.22;4121542;28;20031;-76
2021/08/07 05:55:36;;;;;;;9.23;1.88;;;16.10;99.90;;;15.84;100.00;99744.03;4137343;28;20041;-75
2021/08/07 05:57:37;;;;;;;7.05;1.88;;;16.20;99.90;;;15.84;100.00;99749.38;4121570;28;20027;-76
2021/08/07 05:59:38;;;;;;;11.95;2.22;;;16.30;99.90;;;15.66;100.00;99750.09;4121205;28;20038;-75
2021/08/07 06:01:39;;;;;;;8.32;2.22;;;16.30;99.90;;;15.72;100.00;99727.97;4137609;28;20030;-75
2021/08/07 06:03:40;;;;;;;7.25;1.35;;;16.30;99.90;;;15.83;100.00;99734.47;4121111;28;20039;-75
2021/08/07 06:05:41;;;;;;;6.57;1.70;;;16.30;99.90;;;15.65;100.00;99729.03;4137573;28;20026;-75
2021/08/07 06:07:41;;;;;;;10.27;1.70;;;16.30;99.90;;;15.73;100.00;99734.91;4121403;28;20067;-76
2021/08/07 06:09:43;;;;;;;5.65;1.92;;;16.30;99.90;;;15.76;100.00;99737.16;4137371;28;20383;-75
2021/08/07 06:11:43;;;;;;;9.40;2.28;;;16.20;99.90;;;15.65;100.00;99729.03;4105070;29;20031;-76
2021/08/07 06:13:45;;;;;;;9.73;1.77;;;16.10;99.90;;;15.63;100.00;99731.91;4122141;28;20045;-75
2021/08/07 06:15:45;;;;;;;9.13;1.80;;;16.10;99.90;;;15.67;100.00;99745.59;4121177;28;20054;-75
2021/08/07 06:17:46;;;;;;;5.30;1.80;;;16.00;99.90;;;15.74;100.00;99735.75;4137090;28;20026;-75
2021/08/07 06:19:47;;;;;;;10.52;1.85;;;16.00;99.90;;;15.61;100.00;99730.47;4122002;28;20030;-75
2021/08/07 06:21:48;;;;;;;8.15;1.83;;;16.00;99.90;;;15.66;100.00;99744.75;4121029;28;20023;-76
2021/08/07 06:23:49;;;;;;;8.25;1.65;;;16.00;99.90;;;15.62;100.00;99724.16;4137117;28;20026;-76
2021/08/07 06:25:50;;;;;;;7.07;1.60;;;16.00;99.90;;;15.66;100.00;99733.31;4120894;28;20023;-76
2021/08/07 06:27:55;;;;;;;5.93;1.80;;;16.00;99.90;;;15.64;100.00;99727.41;4121004;28;20030;-76
2021/08/07 06:29:56;;;;;;;10.57;1.63;;;16.00;99.90;;;15.65;100.00;99745.00;4137175;28;20026;-76
2021/08/07 06:31:57;;;;;;;5.38;1.40;;;16.00;99.90;;;15.60;100.00;99737.63;4122254;28;20074;-76
2021/08/07 06:33:58;;;;;;;7.47;1.88;;;16.00;99.90;;;15.84;100.00;99749.38;4122012;28;20037;-76
2021/08/07 06:36:00;;;;;;;6.55;1.90;;;16.10;99.90;;;16.11;100.00;99752.66;4120835;28;20041;-76
2021/08/07 06:38:01;;;;;;;6.57;1.98;;;16.40;99.90;;;16.18;100.00;99751.59;4120595;28;20105;-75
2021/08/07 06:40:03;;;;;;;5.22;1.40;;;16.60;99.90;;;16.15;100.00;99746.72;4121812;28;20049;-76
2021/08/07 06:42:04;;;;;;;10.25;1.63;;;16.70;99.90;;;16.37;100.00;99755.13;4121987;28;20038;-75
2021/08/07 06:44:05;;;;;;;7.25;1.67;;;16.90;99.90;;;16.41;100.00;99762.47;4121466;28;20039;-76
2021/08/07 06:46:06;;;;;;;6.65;1.98;;;17.00;99.90;;;16.49;100.00;99761.38;4120404;28;20394;-76
2021/08/07 06:48:07;;;;;;;8.15;2.55;;;17.10;99.90;;;16.48;100.00;99751.78;4136622;28;20022;-76
2021/08/07 06:50:09;;;;;;;11.02;2.78;;;17.20;99.90;;;16.60;100.00;99755.38;4121742;28;20108;-76
2021/08/07 06:52:10;;;;;;;4.72;1.35;;;17.20;99.90;;;16.62;100.00;99757.81;4120531;28;20107;-76
2021/08/07 06:54:11;;;;;;;6.07;2.33;;;17.20;99.90;;;16.55;100.00;99771.16;4121571;28;20089;-76
2021/08/07 06:56:12;;;;;;;7.70;1.60;;;17.10;99.90;;;16.54;100.00;99767.72;4120243;28;20034;-76
2021/08/07 06:58:13;;;;;;;8.52;1.80;;;17.00;99.90;;;16.38;100.00;99765.56;4120260;28;20074;-76
2021/08/07 07:00:14;;;;;;;7.28;2.15;;;16.90;99.90;;;16.15;100.00;99775.16;4120049;28;20031;-75
2021/08/07 07:02:16;;;;;;;14.07;2.67;;;16.70;99.90;;;16.28;100.00;99785.69;4121619;28;20038;-75
2021/08/07 07:04:16;;;;;;;13.20;2.53;;;16.70;99.90;;;16.36;100.00;99774.81;4120564;28;20027;-76
2021/08/07 07:06:17;;;;;;;9.07;2.20;;;16.70;99.90;;;16.24;100.00;99774.69;4136648;28;20077;-76
2021/08/07 07:08:19;;;;;;;9.43;2.65;;;16.70;99.90;;;16.33;100.00;99778.72;4120413;28;20431;-75
2021/08/07 07:10:20;;;;;;;16.15;3.30;;;16.80;99.90;;;16.40;100.00;99776.78;4120097;28;20032;-76
2021/08/07 07:12:21;;;;;;;13.10;2.45;;;16.80;99.90;;;16.42;100.00;99780.06;4136411;28;20025;-76
2021/08/07 07:14:22;;;;;;;9.43;2.58;;;16.90;99.90;;;16.45;100.00;99769.00;4119968;28;20069;-76
2021/08/07 07:16:23;;;;;;;5.90;2.00;;;17.00;99.90;;;16.39;100.00;99783.16;4136144;28;20037;-76
2021/08/07 07:18:24;;;;;;;17.33;3.03;;;16.90;99.90;;;16.25;100.00;99789.59;4121242;28;20078;-75
2021/08/07 07:20:25;;;;;;;12.27;2.88;;;16.90;99.90;;;16.41;100.00;99783.75;4104098;29;20023;-76
2021/08/07 07:22:27;;;;;;;10.02;2.60;;;16.90;99.90;;;16.44;100.00;99788.66;4121483;28;20085;-76
2021/08/07 07:24:28;;;;;;;8.82;2.22;;;16.90;99.90;;;16.40;100.00;99786.63;4119860;28;20019;-76
2021/08/07 07:26:29;;;;;;;12.45;2.63;;;16.90;99.90;;;16.40;100.00;99779.47;4120003;28;20395;-75
2021/08/07 07:28:30;;;;;;;8.90;3.10;;;16.90;99.90;;;16.59;100.00;99788.34;4120896;28;20081;-76
2021/08/07 07:30:31;;;;;;;13.82;2.92;;;17.00;99.90;;;16.59;100.00;99785.69;4120029;28;20035;-75
2021/08/07 07:32:32;;;;;;;10.60;2.95;;;17.00;99.90;;;16.62;100.00;99790.59;4121121;28;20031;-75
2021/08/07 07:34:33;;;;;;;14.63;2.70;;;17.10;99.90;;;16.61;100.00;99782.81;4119760;28;20096;-76
2021/08/07 07:36:34;;;;;;;11.40;3.25;;;17.10;99.90;;;16.69;100.00;99782.53;4119801;28;20062;-75
2021/08/07 07:38:35;;;;;;;7.80;2.15;;;17.10;99.90;;;16.65;100.00;99784.00;4121054;28;20033;-75
2021/08/07 07:40:36;;;;;;;15.43;3.28;;;17.10;99.90;;;16.60;100.00;99779.34;4119485;28;20051;-75
2021/08/07 07:42:37;;;;;;;13.93;2.55;;;17.20;99.90;;;16.54;100.00;99773.03;4120759;28;20023;-75
2021/08/07 07:44:38;;;;;;;10.23;2.25;;;17.20;99.90;;;16.67;100.00;99779.25;4118928;28;20037;-75
2021/08/07 07:46:39;;;;;;;12.48;2.45;;;17.20;99.90;;;16.80;100.00;99787.13;4125648;28;20031;-75
2021/08/07 07:48:41;;;;;;;13.38;2.70;;;17.30;99.90;;;16.85;100.00;99782.78;4103705;28;20103;-75
2021/08/07 07:50:41;;;;;;;11.10;3.70;;;17.40;99.90;;;16.96;100.00;99789.25;4103378;28;20023;-75
2021/08/07 07:52:44;;;;;;;11.77;2.47;;;17.40;99.90;;;17.00;100.00;99788.56;4103631;28;20042;-75
2021/08/07 07:54:45;;;;;;;13.80;2.83;;;17.50;99.90;;;17.11;100.00;99795.03;4119372;28;20034;-76
2021/08/07 07:56:46;;;;;;;7.40;2.65;;;17.50;99.90;;;17.19;100.00;99784.06;4119476;28;20534;-75
2021/08/07 07:58:47;;;;;;;12.82;2.95;;;17.60;99.90;;;17.21;100.00;99800.66;4105538;28;20027;-75
2021/08/07 08:00:48;;;;;;;17.40;3.53;;;17.70;99.90;;;17.20;100.00;99803.56;4116819;28;20114;-76
2021/08/07 08:02:49;;;;;;;15.75;2.95;;;17.80;99.90;;;17.44;100.00;99800.00;4124464;28;20116;-76
2021/08/07 08:04:50;;;;;;;13.43;2.67;;;18.00;99.90;;;17.68;100.00;99805.25;4121643;28;20022;-76
2021/08/07 08:06:51;;;;;;;10.60;2.50;;;18.30;99.90;;;17.85;97.77;99797.44;4122902;28;20039;-76
2021/08/07 08:08:51;;;;;;;10.40;2.30;;;18.50;99.90;;;17.51;97.31;99790.03;4145849;28;20022;-76
2021/08/07 08:10:52;;;;;;;9.02;2.10;;;18.60;99.90;;;17.68;97.91;99791.91;4120381;28;20162;-76
2021/08/07 08:12:54;;;;;;;8.82;1.90;;;18.70;99.90;;;17.81;96.11;99795.44;4120193;28;20039;-76
2021/08/07 08:14:55;;;;;;;8.73;2.35;;;18.70;99.90;;;18.07;96.32;99789.75;4118792;28;20027;-76
2021/08/07 08:16:56;;;;;;;12.98;2.38;;;19.00;99.90;;;17.89;93.84;99811.94;4135177;28;20025;-76
2021/08/07 08:18:57;;;;;;;7.82;1.88;;;19.10;99.90;;;17.87;93.41;99799.88;4119113;28;20526;-76
2021/08/07 08:20:58;;;;;;;10.45;1.60;;;19.10;99.90;;;17.63;91.19;99801.63;4119045;28;20027;-76
2021/08/07 08:22:59;;;;;;;6.88;1.60;;;19.00;99.90;;;17.53;92.93;99799.44;4102695;28;20023;-76
2021/08/07 08:25:01;;;;;;;12.63;2.83;;;18.90;99.90;;;17.38;93.94;99799.00;4118795;28;20041;-76
2021/08/07 08:27:02;;;;;;;12.85;2.53;;;18.70;99.90;;;17.60;93.55;99805.56;4120273;28;20027;-76